createdAt,value
2023-02-09T00:01:41.309Z,-2.19
2023-02-09T00:04:15.655Z,-2.20
2023-02-09T00:06:48.791Z,-2.22
2023-02-09T00:09:22.328Z,-2.22
2023-02-09T00:12:13.165Z,-2.24
2023-02-09T00:14:46.557Z,-2.27
2023-02-09T00:17:19.910Z,-2.28
2023-02-09T00:19:54.908Z,-2.26
2023-02-09T00:22:28.332Z,-2.28
2023-02-09T00:25:01.833Z,-2.27
2023-02-09T00:27:36.359Z,-2.28
2023-02-09T00:30:12.113Z,-2.29
2023-02-09T00:32:45.526Z,-2.30
2023-02-09T00:35:20.621Z,-2.32
2023-02-09T00:37:54.029Z,-2.29
2023-02-09T00:40:27.583Z,-2.28
2023-02-09T00:43:01.333Z,-2.22
2023-02-09T00:45:35.250Z,-2.21
2023-02-09T00:48:09.591Z,-2.17
2023-02-09T00:50:43.111Z,-2.12
2023-02-09T00:53:16.722Z,-2.12
2023-02-09T00:55:50.664Z,-2.10
2023-02-09T00:58:24.069Z,-2.11
2023-02-09T01:00:57.199Z,-2.12
2023-02-09T01:03:30.658Z,-2.11
2023-02-09T01:06:04.264Z,-2.11
2023-02-09T01:08:38.406Z,-2.10
2023-02-09T01:11:13.603Z,-2.10
2023-02-09T01:13:47.848Z,-2.10
2023-02-09T01:16:21.797Z,-2.10
2023-02-09T01:18:55.204Z,-2.07
2023-02-09T01:21:29.364Z,-2.06
2023-02-09T01:24:02.577Z,-2.05
2023-02-09T01:26:36.297Z,-1.98
2023-02-09T01:29:09.684Z,-1.96
2023-02-09T01:31:43.650Z,-1.96
2023-02-09T01:34:19.208Z,-1.96
2023-02-09T01:36:54.449Z,-2.02
2023-02-09T01:39:29.394Z,-2.03
2023-02-09T01:42:03.731Z,-2.05
2023-02-09T01:45:25.325Z,-2.08
2023-02-09T01:48:01.832Z,-2.08
2023-02-09T01:50:38.599Z,-2.11
2023-02-09T01:53:11.920Z,-2.10
2023-02-09T01:55:48.126Z,-2.09
2023-02-09T01:58:23.793Z,-2.08
2023-02-09T02:00:59.665Z,-2.07
2023-02-09T02:03:33.392Z,-2.07
2023-02-09T02:06:10.449Z,-2.06
2023-02-09T02:08:46.176Z,-2.06
2023-02-09T02:11:21.197Z,-2.06
2023-02-09T02:13:54.419Z,-2.07
2023-02-09T02:16:43.284Z,-2.06
2023-02-09T02:22:59.347Z,-1.89
2023-02-09T02:26:11.590Z,-2.02
2023-02-09T02:28:56.164Z,-2.03
2023-02-09T02:32:18.368Z,-2.04
2023-02-09T02:34:54.596Z,-1.96
2023-02-09T02:37:50.682Z,-1.90
2023-02-09T02:40:32.298Z,-1.83
2023-02-09T02:43:10.240Z,-1.74
2023-02-09T02:45:47.316Z,-1.73
2023-02-09T02:48:26.830Z,-1.73
2023-02-09T02:51:03.446Z,-1.72
2023-02-09T02:53:39.051Z,-1.70
2023-02-09T02:56:16.250Z,-1.67
2023-02-09T02:58:52.711Z,-1.60
2023-02-09T03:01:29.359Z,-1.52
2023-02-09T03:04:05.232Z,-1.48
2023-02-09T03:06:40.168Z,-1.45
2023-02-09T03:09:13.945Z,-1.43
2023-02-09T03:11:50.103Z,-1.41
2023-02-09T03:14:43.435Z,-1.41
2023-02-09T03:17:22.748Z,-1.41
2023-02-09T03:19:59.269Z,-1.46
2023-02-09T03:22:35.976Z,-1.50
2023-02-09T03:25:12.934Z,-1.56
2023-02-09T03:27:50.283Z,-1.61
2023-02-09T03:30:25.755Z,-1.64
2023-02-09T03:32:59.377Z,-1.69
2023-02-09T03:35:38.232Z,-1.71
2023-02-09T03:38:11.671Z,-1.72
2023-02-09T03:40:45.749Z,-1.70
2023-02-09T03:43:19.436Z,-1.71
2023-02-09T03:45:52.908Z,-1.71
2023-02-09T03:48:26.370Z,-1.70
2023-02-09T03:51:01.174Z,-1.70
2023-02-09T03:53:36.579Z,-1.67
2023-02-09T03:56:10.512Z,-1.66
2023-02-09T03:58:44.000Z,-1.66
2023-02-09T04:01:17.493Z,-1.66
2023-02-09T04:03:51.351Z,-1.67
2023-02-09T04:06:24.503Z,-1.67
2023-02-09T04:08:58.088Z,-1.67
2023-02-09T04:11:32.109Z,-1.64
2023-02-09T04:14:06.457Z,-1.60
2023-02-09T04:16:40.097Z,-1.61
2023-02-09T04:19:13.762Z,-1.62
2023-02-09T04:21:47.103Z,-1.62
2023-02-09T04:24:21.964Z,-1.61
2023-02-09T04:26:55.544Z,-1.56
2023-02-09T04:29:29.480Z,-1.55
2023-02-09T04:32:02.877Z,-1.53
2023-02-09T04:34:36.278Z,-1.55
2023-02-09T04:37:09.655Z,-1.54
2023-02-09T04:39:43.043Z,-1.59
2023-02-09T04:42:16.607Z,-1.61
2023-02-09T04:44:50.097Z,-1.60
2023-02-09T04:47:23.392Z,-1.54
2023-02-09T04:49:56.814Z,-1.55
2023-02-09T04:52:30.361Z,-1.57
2023-02-09T04:55:03.696Z,-1.59
2023-02-09T04:57:53.731Z,-1.61
2023-02-09T05:00:27.386Z,-1.61
2023-02-09T05:03:00.827Z,-1.60
2023-02-09T05:05:34.124Z,-1.65
2023-02-09T05:08:08.126Z,-1.54
2023-02-09T05:10:41.985Z,-1.49
2023-02-09T05:13:15.363Z,-1.46
2023-02-09T05:15:48.784Z,-1.45
2023-02-09T05:18:22.875Z,-1.39
2023-02-09T05:20:56.183Z,-1.45
2023-02-09T05:23:29.555Z,-1.50
2023-02-09T05:26:03.357Z,-1.52
2023-02-09T05:28:36.867Z,-1.51
2023-02-09T05:31:10.390Z,-1.53
2023-02-09T05:33:43.805Z,-1.53
2023-02-09T05:36:17.181Z,-1.51
2023-02-09T05:38:50.866Z,-1.47
2023-02-09T05:41:42.022Z,-1.44
2023-02-09T05:44:15.683Z,-1.44
2023-02-09T05:46:49.138Z,-1.47
2023-02-09T05:49:22.763Z,-1.46
2023-02-09T05:51:56.297Z,-1.44
2023-02-09T05:54:30.068Z,-1.38
2023-02-09T05:57:04.262Z,-1.31
2023-02-09T05:59:37.731Z,-1.25
2023-02-09T06:02:12.114Z,-1.24
2023-02-09T06:04:45.690Z,-1.23
2023-02-09T06:07:18.801Z,-1.19
2023-02-09T06:09:52.301Z,-1.18
2023-02-09T06:12:25.851Z,-1.16
2023-02-09T06:14:59.255Z,-1.13
2023-02-09T06:17:34.442Z,-1.08
2023-02-09T06:20:09.594Z,-1.10
2023-02-09T06:22:42.972Z,-1.11
2023-02-09T06:25:16.661Z,-1.09
2023-02-09T06:27:50.150Z,-1.03
2023-02-09T06:30:24.075Z,-1.00
2023-02-09T06:32:57.517Z,-0.94
2023-02-09T06:35:30.962Z,-0.89
2023-02-09T06:38:04.513Z,-0.91
2023-02-09T06:40:38.095Z,-0.94
2023-02-09T06:43:11.850Z,-0.93
2023-02-09T06:45:45.732Z,-0.93
2023-02-09T06:48:19.309Z,-0.91
2023-02-09T06:50:52.903Z,-0.90
2023-02-09T06:53:26.634Z,-0.89
2023-02-09T06:56:03.536Z,-0.88
2023-02-09T06:58:37.598Z,-0.90
2023-02-09T07:01:15.112Z,-0.88
2023-02-09T07:03:48.756Z,-0.87
2023-02-09T07:06:23.360Z,-0.82
2023-02-09T07:08:57.256Z,-0.82
2023-02-09T07:11:31.438Z,-0.82
2023-02-09T07:14:04.587Z,-0.81
2023-02-09T07:16:38.015Z,-0.82
2023-02-09T07:19:11.484Z,-0.79
2023-02-09T07:21:45.052Z,-0.79
2023-02-09T07:24:18.616Z,-0.77
2023-02-09T07:26:54.818Z,-0.65
2023-02-09T07:29:28.383Z,-0.68
2023-02-09T07:32:04.640Z,-0.75
2023-02-09T07:34:38.525Z,-0.79
2023-02-09T07:37:13.159Z,-0.82
2023-02-09T07:39:46.865Z,-0.86
2023-02-09T07:42:23.071Z,-0.83
2023-02-09T07:44:59.515Z,-0.77
2023-02-09T07:47:35.585Z,-0.74
2023-02-09T07:50:10.401Z,-0.71
2023-02-09T07:52:43.843Z,-0.70
2023-02-09T07:55:17.364Z,-0.67
2023-02-09T07:57:50.802Z,-0.62
2023-02-09T08:00:25.658Z,-0.60
2023-02-09T08:03:00.419Z,-0.53
2023-02-09T08:05:37.140Z,-0.53
2023-02-09T08:08:10.217Z,-0.58
2023-02-09T08:10:44.490Z,-0.60
2023-02-09T08:13:18.356Z,-0.58
2023-02-09T08:15:54.757Z,-0.54
2023-02-09T08:21:14.051Z,-0.29
2023-02-09T08:23:50.467Z,-0.40
2023-02-09T08:26:24.336Z,-0.43
2023-02-09T08:28:58.906Z,-0.42
2023-02-09T08:31:32.744Z,-0.44
2023-02-09T08:34:06.804Z,-0.41
2023-02-09T08:36:41.537Z,-0.40
2023-02-09T08:39:15.302Z,-0.39
2023-02-09T08:41:49.012Z,-0.38
2023-02-09T08:44:22.986Z,-0.31
2023-02-09T08:46:56.707Z,-0.24
2023-02-09T08:49:30.461Z,-0.16
2023-02-09T08:52:03.931Z,-0.16
2023-02-09T08:54:37.764Z,-0.14
2023-02-09T08:57:11.151Z,-0.08
2023-02-09T08:59:44.767Z,-0.05
2023-02-09T09:02:18.421Z,-0.01
2023-02-09T09:04:52.010Z,-0.03
2023-02-09T09:07:25.850Z,-0.04
2023-02-09T09:09:59.413Z,0.02
2023-02-09T09:12:34.666Z,0.03
2023-02-09T09:15:08.869Z,0.12
2023-02-09T09:17:42.467Z,0.29
2023-02-09T09:20:16.524Z,0.39
2023-02-09T09:22:50.152Z,0.49
2023-02-09T09:25:23.341Z,0.55
2023-02-09T09:27:56.856Z,0.62
2023-02-09T09:30:30.376Z,0.69
2023-02-09T09:33:03.994Z,0.65
2023-02-09T09:35:37.616Z,0.61
2023-02-09T09:38:11.194Z,0.53
2023-02-09T09:40:47.044Z,0.44
2023-02-09T09:43:24.548Z,0.45
2023-02-09T09:45:58.678Z,0.45
2023-02-09T09:48:35.597Z,0.40
2023-02-09T09:51:12.890Z,0.42
2023-02-09T09:53:48.759Z,0.45
2023-02-09T09:56:26.132Z,0.43
2023-02-09T09:59:00.678Z,0.36
2023-02-09T10:01:35.308Z,0.36
2023-02-09T10:04:15.150Z,0.36
2023-02-09T10:06:51.125Z,0.32
2023-02-09T10:09:32.834Z,0.29
2023-02-09T10:12:18.064Z,0.35
2023-02-09T10:14:51.662Z,0.38
2023-02-09T10:17:24.724Z,0.31
2023-02-09T10:20:05.994Z,0.29
2023-02-09T10:22:39.535Z,0.31
2023-02-09T10:25:39.616Z,0.28
2023-02-09T10:28:23.177Z,0.27
2023-02-09T10:30:58.468Z,0.24
2023-02-09T10:33:34.598Z,0.21
2023-02-09T10:36:11.702Z,0.18
2023-02-09T10:38:45.512Z,0.23
2023-02-09T10:41:19.348Z,0.30
2023-02-09T10:43:55.273Z,0.33
2023-02-09T10:46:29.127Z,0.40
2023-02-09T10:49:03.530Z,0.38
2023-02-09T10:51:37.865Z,0.35
2023-02-09T10:54:14.231Z,0.35
2023-02-09T10:56:50.257Z,0.37
2023-02-09T10:59:26.346Z,0.40
2023-02-09T11:02:01.913Z,0.44
2023-02-09T11:04:40.250Z,0.50
2023-02-09T11:07:16.481Z,0.53
2023-02-09T11:09:52.683Z,0.57
2023-02-09T11:12:29.006Z,0.63
2023-02-09T11:15:02.846Z,0.75
2023-02-09T11:17:38.208Z,0.81
2023-02-09T11:20:26.938Z,0.92
2023-02-09T11:23:10.486Z,0.99
2023-02-09T11:25:48.524Z,0.87
2023-02-09T11:32:15.051Z,1.04
2023-02-09T11:37:57.714Z,0.91
2023-02-09T11:40:35.410Z,0.70
2023-02-09T11:43:18.739Z,0.63
2023-02-09T11:45:53.412Z,0.61
2023-02-09T11:48:29.752Z,0.58
2023-02-09T11:51:09.128Z,0.58
2023-02-09T11:53:46.216Z,0.53
2023-02-09T11:56:21.582Z,0.52
2023-02-09T11:58:59.300Z,0.59
2023-02-09T12:01:33.885Z,0.63
2023-02-09T12:04:13.172Z,0.69
2023-02-09T12:06:49.871Z,0.61
2023-02-09T12:12:35.520Z,0.75
2023-02-09T12:15:18.377Z,0.64
2023-02-09T12:17:54.798Z,0.61
2023-02-09T12:20:32.227Z,0.58
2023-02-09T12:23:08.521Z,0.51
2023-02-09T12:26:15.393Z,0.48
2023-02-09T12:28:50.100Z,0.44
2023-02-09T12:31:27.441Z,0.32
2023-02-09T12:34:17.212Z,0.45
2023-02-09T12:37:28.636Z,0.45
2023-02-09T12:40:26.439Z,0.36
2023-02-09T12:46:20.578Z,0.46
2023-02-09T12:49:14.669Z,0.34
2023-02-09T12:55:15.137Z,0.45
2023-02-09T12:57:52.983Z,0.30
2023-02-09T13:03:43.815Z,0.38
2023-02-09T13:06:25.455Z,0.26
2023-02-09T13:09:01.768Z,0.29
2023-02-09T13:11:41.111Z,0.32
2023-02-09T13:14:16.407Z,0.32
2023-02-09T13:21:00.900Z,0.35
2023-02-09T13:23:39.862Z,0.33
2023-02-09T13:26:23.067Z,0.26
2023-02-09T13:29:19.646Z,0.19
2023-02-09T13:31:50.241Z,0.26
2023-02-09T13:34:25.294Z,0.21
2023-02-09T13:37:04.140Z,0.22
2023-02-09T13:39:40.881Z,0.17
2023-02-09T13:42:23.404Z,0.16
2023-02-09T13:44:58.912Z,0.14
2023-02-09T13:47:34.106Z,0.12
2023-02-09T13:50:14.049Z,0.10
2023-02-09T13:52:47.761Z,0.08
2023-02-09T13:55:22.904Z,0.10
2023-02-09T13:57:59.586Z,0.12
2023-02-09T14:00:37.925Z,0.11
2023-02-09T14:03:16.377Z,0.10
2023-02-09T14:05:53.258Z,0.08
2023-02-09T14:08:28.478Z,0.09
2023-02-09T14:11:05.009Z,0.12
2023-02-09T14:13:41.210Z,0.12
2023-02-09T14:16:17.911Z,0.11
2023-02-09T14:18:53.608Z,0.09
2023-02-09T14:21:32.255Z,0.07
2023-02-09T14:24:21.686Z,0.07
2023-02-09T14:27:03.327Z,0.08
2023-02-09T14:29:38.277Z,0.05
2023-02-09T14:32:33.093Z,0.01
2023-02-09T14:35:04.629Z,0.01
2023-02-09T14:37:39.923Z,0.03
2023-02-09T14:40:24.273Z,-0.06
2023-02-09T14:43:03.125Z,0.01
2023-02-09T14:45:43.632Z,-0.02
2023-02-09T14:51:14.241Z,0.09
2023-02-09T14:53:48.631Z,-0.06
2023-02-09T14:56:26.534Z,-0.10
2023-02-09T14:59:00.348Z,-0.10
2023-02-09T15:01:33.913Z,-0.08
2023-02-09T15:04:07.294Z,-0.09
2023-02-09T15:06:43.728Z,-0.12
2023-02-09T15:09:21.508Z,-0.11
2023-02-09T15:12:08.633Z,-0.11
2023-02-09T15:14:46.580Z,-0.13
2023-02-09T15:17:21.982Z,-0.16
2023-02-09T15:19:55.998Z,-0.13
2023-02-09T15:22:29.618Z,-0.14
2023-02-09T15:25:03.195Z,-0.13
2023-02-09T15:27:40.097Z,-0.10
2023-02-09T15:30:18.892Z,-0.14
2023-02-09T15:32:52.904Z,-0.17
2023-02-09T15:35:28.372Z,-0.19
2023-02-09T15:38:03.344Z,-0.18
2023-02-09T15:40:57.469Z,-0.17
2023-02-09T15:43:48.675Z,-0.18
2023-02-09T15:46:39.694Z,-0.22
2023-02-09T15:49:13.479Z,-0.27
2023-02-09T15:51:47.001Z,-0.32
2023-02-09T15:54:27.341Z,-0.32
2023-02-09T15:57:01.556Z,-0.36
2023-02-09T15:59:35.192Z,-0.35
2023-02-09T16:02:14.397Z,-0.32
2023-02-09T16:04:49.354Z,-0.36
2023-02-09T16:07:26.992Z,-0.35
2023-02-09T16:10:00.615Z,-0.34
2023-02-09T16:12:36.844Z,-0.33
2023-02-09T16:15:17.886Z,-0.37
2023-02-09T16:17:51.869Z,-0.41
2023-02-09T16:20:26.289Z,-0.42
2023-02-09T16:23:11.735Z,-0.45
2023-02-09T16:25:37.066Z,-0.44
2023-02-09T16:28:13.718Z,-0.41
2023-02-09T16:30:53.538Z,-0.44
2023-02-09T16:33:27.966Z,-0.49
2023-02-09T16:36:05.313Z,-0.47
2023-02-09T16:38:38.915Z,-0.47
2023-02-09T16:41:17.141Z,-0.51
2023-02-09T16:43:51.568Z,-0.48
2023-02-09T16:46:25.252Z,-0.52
2023-02-09T16:48:59.166Z,-0.52
2023-02-09T16:51:32.755Z,-0.52
2023-02-09T16:54:07.799Z,-0.51
2023-02-09T16:56:53.607Z,-0.53
2023-02-09T16:59:16.526Z,-0.61
2023-02-09T17:01:50.115Z,-0.52
2023-02-09T17:04:23.514Z,-0.53
2023-02-09T17:06:57.109Z,-0.55
2023-02-09T17:09:30.412Z,-0.53
2023-02-09T17:12:03.744Z,-0.53
2023-02-09T17:14:37.241Z,-0.49
2023-02-09T17:17:13.796Z,-0.56
2023-02-09T17:19:48.405Z,-0.53
2023-02-09T17:22:22.426Z,-0.59
2023-02-09T17:24:56.117Z,-0.61
2023-02-09T17:27:33.794Z,-0.59
2023-02-09T17:30:12.180Z,-0.56
2023-02-09T17:32:45.789Z,-0.54
2023-02-09T17:35:48.779Z,-0.53
2023-02-09T17:38:02.352Z,-0.55
2023-02-09T17:40:38.017Z,-0.61
2023-02-09T17:43:13.088Z,-0.60
2023-02-09T17:45:49.743Z,-0.59
2023-02-09T17:48:24.577Z,-0.61
2023-02-09T17:51:00.358Z,-0.63
2023-02-09T17:53:36.213Z,-0.62
2023-02-09T17:56:10.194Z,-0.63
2023-02-09T17:58:44.667Z,-0.61
2023-02-09T18:01:27.291Z,-0.60
2023-02-09T18:04:04.078Z,-0.64
2023-02-09T18:06:40.213Z,-0.69
2023-02-09T18:09:16.188Z,-0.70
2023-02-09T18:12:02.517Z,-0.69
2023-02-09T18:14:36.963Z,-0.70
2023-02-09T18:17:10.902Z,-0.86
2023-02-09T18:19:44.786Z,-0.71
2023-02-09T18:22:20.181Z,-0.74
2023-02-09T18:24:55.435Z,-0.74
2023-02-09T18:27:29.458Z,-0.71
2023-02-09T18:30:03.370Z,-0.70
2023-02-09T18:32:36.947Z,-0.72
2023-02-09T18:35:14.123Z,-0.72
2023-02-09T18:37:48.254Z,-0.72
2023-02-09T18:40:22.528Z,-0.72
2023-02-09T18:43:08.716Z,-0.76
2023-02-09T18:46:20.620Z,-0.79
2023-02-09T18:48:57.164Z,-0.79
2023-02-09T18:51:31.375Z,-0.86
2023-02-09T18:54:09.408Z,-0.86
2023-02-09T18:56:42.754Z,-0.83
2023-02-09T18:59:17.860Z,-0.87
2023-02-09T19:01:51.699Z,-0.86
2023-02-09T19:04:25.659Z,-0.81
2023-02-09T19:06:59.969Z,-0.90
2023-02-09T19:09:33.794Z,-0.93
2023-02-09T19:12:09.111Z,-0.94
2023-02-09T19:14:45.174Z,-1.01
2023-02-09T19:17:20.234Z,-1.00
2023-02-09T19:19:53.934Z,-1.04
2023-02-09T19:22:28.153Z,-1.05
2023-02-09T19:25:05.177Z,-1.05
2023-02-09T19:27:38.657Z,-1.05
2023-02-09T19:30:32.930Z,-1.10
2023-02-09T19:33:09.064Z,-1.12
2023-02-09T19:35:44.221Z,-1.16
2023-02-09T19:38:38.136Z,-1.20
2023-02-09T19:41:13.679Z,-1.18
2023-02-09T19:43:50.694Z,-1.21
2023-02-09T19:46:35.027Z,-1.26
2023-02-09T19:49:08.443Z,-1.24
2023-02-09T19:51:41.963Z,-1.24
2023-02-09T19:54:35.985Z,-1.26
2023-02-09T19:57:09.873Z,-1.25
2023-02-09T19:59:43.385Z,-1.24
2023-02-09T20:02:18.177Z,-1.22
2023-02-09T20:04:52.068Z,-1.22
2023-02-09T20:07:25.877Z,-1.25
2023-02-09T20:09:59.456Z,-1.23
2023-02-09T20:12:34.522Z,-1.23
2023-02-09T20:15:09.375Z,-1.21
2023-02-09T20:18:15.978Z,-1.25
2023-02-09T20:21:16.372Z,-1.24
2023-02-09T20:23:50.293Z,-1.22
2023-02-09T20:26:26.773Z,-1.28
2023-02-09T20:29:01.070Z,-1.25
2023-02-09T20:31:37.127Z,-1.26
2023-02-09T20:34:13.217Z,-1.30
2023-02-09T20:37:23.529Z,-1.31
2023-02-09T20:40:09.572Z,-1.30
2023-02-09T20:43:05.797Z,-1.22
2023-02-09T20:46:15.130Z,-1.26
2023-02-09T20:48:52.458Z,-1.30
2023-02-09T20:51:26.653Z,-1.36
2023-02-09T20:54:00.146Z,-1.36
2023-02-09T20:56:36.804Z,-1.37
2023-02-09T20:59:10.533Z,-1.30
2023-02-09T21:01:45.216Z,-1.32
2023-02-09T21:04:18.840Z,-1.32
2023-02-09T21:06:52.473Z,-1.35
2023-02-09T21:09:28.388Z,-1.34
2023-02-09T21:12:01.930Z,-1.31
2023-02-09T21:14:42.196Z,-1.31
2023-02-09T21:17:11.518Z,-1.31
2023-02-09T21:19:45.119Z,-1.30
2023-02-09T21:22:18.797Z,-1.36
2023-02-09T21:24:52.610Z,-1.28
2023-02-09T21:27:26.355Z,-1.29
2023-02-09T21:29:59.899Z,-1.26
2023-02-09T21:32:35.919Z,-1.30
2023-02-09T21:35:11.225Z,-1.31
2023-02-09T21:37:44.799Z,-1.34
2023-02-09T21:40:20.165Z,-1.33
2023-02-09T21:42:53.962Z,-1.32
2023-02-09T21:45:27.406Z,-1.36
2023-02-09T21:48:02.438Z,-1.35
2023-02-09T21:50:35.888Z,-1.37
2023-02-09T21:53:09.414Z,-1.42
2023-02-09T21:55:42.941Z,-1.50
2023-02-09T21:58:16.355Z,-1.47
2023-02-09T22:00:54.639Z,-1.50
2023-02-09T22:03:26.632Z,-1.49
2023-02-09T22:06:00.776Z,-1.45
2023-02-09T22:08:34.241Z,-1.45
2023-02-09T22:11:08.966Z,-1.44
2023-02-09T22:13:42.480Z,-1.41
2023-02-09T22:16:18.715Z,-1.42
2023-02-09T22:18:52.334Z,-1.44
2023-02-09T22:21:26.072Z,-1.46
2023-02-09T22:23:59.759Z,-1.50
2023-02-09T22:26:33.150Z,-1.54
2023-02-09T22:29:06.623Z,-1.58
2023-02-09T22:31:40.203Z,-1.59
2023-02-09T22:34:13.603Z,-1.61
2023-02-09T22:36:46.871Z,-1.62
2023-02-09T22:39:20.021Z,-1.67
2023-02-09T22:41:54.845Z,-1.67
2023-02-09T22:44:30.144Z,-1.65
2023-02-09T22:47:03.738Z,-1.63
2023-02-09T22:49:37.051Z,-1.68
2023-02-09T22:52:10.681Z,-1.69
2023-02-09T22:54:44.095Z,-1.67
2023-02-09T22:57:17.394Z,-1.69
2023-02-09T22:59:50.840Z,-1.67
2023-02-09T23:02:24.638Z,-1.75
2023-02-09T23:04:58.060Z,-1.72
2023-02-09T23:07:31.686Z,-1.75
2023-02-09T23:10:05.422Z,-1.74
2023-02-09T23:12:40.096Z,-1.72
2023-02-09T23:15:13.882Z,-1.71
2023-02-09T23:17:47.383Z,-1.69
2023-02-09T23:20:21.578Z,-1.66
2023-02-09T23:22:56.444Z,-1.66
2023-02-09T23:25:30.376Z,-1.67
2023-02-09T23:28:03.811Z,-1.71
2023-02-09T23:30:37.925Z,-1.70
2023-02-09T23:33:11.308Z,-1.71
2023-02-09T23:35:45.065Z,-1.66
2023-02-09T23:38:20.075Z,-1.63
2023-02-09T23:40:53.468Z,-1.68
2023-02-09T23:43:27.092Z,-1.67
2023-02-09T23:46:02.418Z,-1.70
2023-02-09T23:48:36.558Z,-1.69
2023-02-09T23:51:13.689Z,-1.70
2023-02-09T23:53:47.722Z,-1.69
2023-02-09T23:56:21.765Z,-1.70
2023-02-09T23:58:55.870Z,-1.70
